Weather observations for the past three days for
Taunton, Taunton Municipal Airport
Metric (Imperial)
Date Time (edt) Wind (kph) Vis. (km) Weather Sky Cond. Temperature (ºC) Relative Humidity Wind Chill (°C) Heat Index (°C) Pressure Precipitation (cm)
Air Dwpt 6 hour altimeter (cm) sea level (mb) 1 hr 3 hr 6 hr
Max. Min.
06 01:52 SW 17 G 41 16.09 Fair CLR 14.4 10.6 15 14.4 78% 75.92 1012.2
06 00:52 SW 20 G 43 16.09 Fair CLR 14.4 10.6 78% 75.97 1012.7
05 23:52 SW 15 G 43 16.09 Fair CLR 14.4 10 75% 75.95 1012.6
05 22:52 SW 19 G 43 16.09 Fair CLR 14.4 9.4 72% 75.92 1012.3
05 21:52 S 20 G 43 16.09 Fair CLR 14.4 8.9 70% 75.92 1012.3
05 20:52 S 17 G 33 16.09 Fair CLR 14.4 8.9 70% 75.9 1011.9
05 19:52 SW 24 G 46 16.09 Fair CLR 15 8.9 22.2 15 67% 75.82 1010.7
05 18:52 SW 24 G 50 16.09 Fair CLR 15.6 8.9 65% 75.77 1010.2
05 17:52 SW 20 G 39 16.09 Fair CLR 17.8 9.4 58% 75.74 1009.8
05 16:52 S 24 G 41 16.09 Fair CLR 18.9 10 56% 75.72 1009.5
05 15:52 SW 24 G 48 16.09 Fair CLR 18.9 9.4 54% 75.74 1009.8
05 14:52 S 26 G 41 16.09 Fair CLR 21.1 10 49% 75.74 1009.9
05 13:52 S 26 G 48 16.09 Fair CLR 21.1 9.4 22.2 14.4 47% 75.79 1010.5
05 12:52 S 26 G 43 16.09 Fair CLR 20 9.4 51% 75.84 1011.0
05 11:52 S 19 G 35 16.09 Fair CLR 21.7 10.6 49% 75.84 1011.0
05 10:52 SW 15 G 30 16.09 A Few Clouds FEW100 21.7 10.6 49% 75.84 1011.1
05 09:52 SW 19 G 35 16.09 Fair CLR 17.8 10 60% 75.87 1011.5
05 08:52 S 15 16.09 Fair CLR 16.7 10 65% 75.9 1011.7
05 07:52 S 13 16.09 Fair CLR 14.4 9.4 14.4 8.3 72% 75.87 1011.5
05 06:52 Vrbl 9 16.09 Fair CLR 11.7 8.9 83% 75.87 1011.4
05 05:52 SE 6 16.09 A Few Clouds FEW095 10 8.3 89% 75.84 1011.1
05 04:52 Calm 16.09 Fair CLR 9.4 7.8 90% 75.87 1011.5
05 03:52 Calm 16.09 Fair CLR 9.4 7.8 90% 75.87 1011.5
05 02:52 SW 7 16.09 Fair CLR 10.6 7.8 83% 75.87 1011.6
05 01:52 SW 7 16.09 Fair CLR 10.6 7.8 13.3 10.6 83% 75.9 1011.7
05 00:52 SW 11 16.09 Fair CLR 11.1 7.8 80% 75.92 1012.0
04 23:52 S 11 16.09 Fair CLR 11.1 7.2 77% 75.9 1012.0
04 22:52 SW 13 16.09 Fair CLR 11.1 7.2 77% 75.92 1012.2
04 21:52 SW 15 16.09 Fair CLR 11.1 6.7 75% 75.92 1012.2
04 20:52 SW 20 G 43 16.09 Fair CLR 12.2 6.7 69% 75.87 1011.4
04 19:52 SW 22 G 41 16.09 Fair CLR 13.3 5.6 20 13.3 60% 75.79 1010.4
04 18:52 SW 28 G 48 16.09 Fair CLR 15 3.9 48% 75.74 1009.8
04 17:52 S 30 G 50 16.09 Fair CLR 17.2 3.3 40% 75.72 1009.4
04 16:52 SW 22 G 48 16.09 Fair CLR 18.3 3.3 37% 75.69 1009.0
04 15:52 SW 24 G 52 16.09 Fair CLR 18.9 2.2 33% 75.69 1009.0
04 14:52 SW 26 G 54 16.09 Fair CLR 19.4 2.8 33% 75.69 1009.0
04 13:52 S 26 G 50 16.09 Fair CLR 19.4 1.1 20.6 12.2 30% 75.69 1009.1
04 12:52 W 20 G 48 16.09 Fair CLR 20 -1.1 24% 75.72 1009.4
04 11:52 SW 20 G 48 16.09 Fair CLR 19.4 -0.6 26% 75.77 1010.2
04 10:52 SW 17 G 35 16.09 Fair CLR 18.3 1.1 32% 75.82 1010.7
04 09:52 SW 13 G 31 16.09 Fair CLR 17.8 0.6 32% 75.84 1011.2
04 08:52 W 17 G 31 16.09 Fair CLR 14.4 0.6 39% 75.9 1011.9
04 07:52 SW 17 16.09 Fair CLR 12.2 0.6 12.2 6.1 45% 75.9 1011.9
04 06:52 SW 9 16.09 A Few Clouds FEW100 8.9 0.6 56% 8 75.9 1011.9
04 05:52 SW 7 16.09 Partly Cloudy SCT095 7.2 0.6 63% 6 75.87 1011.5
04 04:52 Calm 16.09 Overcast FEW080 OVC110 8.3 0.6 59% 75.87 1011.3
04 03:52 SW 7 16.09 Overcast BKN075 OVC100 8.3 -2.2 48% 7 75.84 1011.3
04 02:52 SW 7 16.09 Overcast FEW070 OVC090 7.8 -3.3 46% 7 75.84 1011.3
04 01:52 SW 7 16.09 Mostly Cloudy BKN100 7.8 -2.8 10.6 0.6 47% 7 75.84 1011.0
04 00:52 SW 7 16.09 Mostly Cloudy BKN085 6.7 -2.2 53% 6 75.84 1011.1
03 23:52 W 7 16.09 Fair CLR 1.7 -2.8 72% -0 75.82 1010.9
03 22:52 Calm 16.09 Fair CLR 1.1 -1.1 85% 75.79 1010.6
03 21:52 Calm 16.09 Fair CLR 2.2 -2.8 70% 75.79 1010.5
03 20:52 Calm 16.09 Fair CLR 5.6 -3.3 53% 75.74 1009.8
03 19:52 NW 7 16.09 Partly Cloudy SCT080 10.6 -5.6 13.3 10.6 32% 75.69 1009.1
03 18:52 NW 11 G 35 16.09 Overcast OVC080 11.1 -5 32% 75.62 1008.2
03 17:52 W 15 16.09 Overcast OVC075 11.7 -5 31% 75.57 1007.3
03 16:52 NW 15 G 46 16.09 Overcast BKN070 OVC085 12.2 -4.4 31% 75.49 1006.3
03 15:52 NW 13 G 31 16.09 Overcast SCT065 OVC080 12.2 -2.8 35% 75.46 1006.0
03 14:52 Calm 16.09 Overcast BKN070 OVC085 11.7 -2.2 38% 75.46 1006.1
03 13:52 NW 17 G 31 16.09 Overcast FEW065 OVC090 11.7 -1.7 11.7 7.2 40% 75.46 1006.0 0.03
03 12:52 NW 22 G 44 16.09 Overcast FEW034 BKN045 OVC080 10 -0.6 48% 7 75.49 1006.3
03 11:52 Vrbl 11 14.48 Light Rain OVC034 7.2 3.3 77% 5 75.46 1006.2
03 10:52 NW 15 G 28 16.09 Light Rain BKN027 BKN034 OVC041 8.3 3.3 71% 6 75.46 1006.0 0.03 0.03
03 09:52 NW 19 G 35 16.09 Overcast BKN033 OVC045 10 1.7 57% 8 75.41 1005.4
03 08:52 NW 11 G 30 16.09 A Few Clouds FEW029 10 1.7 57% 9 75.44 1005.8
03 07:52 NW 15 G 35 16.09 Fair CLR 7.8 1.7 9.4 6.7 66% 6 75.49 1006.4
03 06:52 NW 9 16.09 Partly Cloudy FEW090 SCT110 7.2 1.7 68% 6 75.51 1006.7
03 05:52 Vrbl 11 16.09 Mostly Cloudy BKN110 7.2 2.2 71% 5 75.51 1006.6
03 04:52 NW 7 16.09 Overcast OVC075 7.8 2.2 68% 7 75.54 1006.9
03 03:52 NW 11 16.09 Overcast BKN060 OVC095 8.3 2.2 66% 7 75.57 1007.6
03 02:52 NW 13 16.09 Overcast BKN060 OVC080 8.9 2.2 63% 7 75.62 1008.1
Date Time (edt) Wind (kph) Vis. (km) Weather Sky Cond. Air Dwpt Max. Min. Relative Humidity Wind Chill (°C) Heat Index (°C) altimeter (cm) sea level (mb) 1 hr 3 hr 6 hr
6 hour
Temperature (ºC) Pressure Precipitation (cm)